sensor_id;sensor_type;location;lat;lon;timestamp;P1;durP1;ratioP1;P2;durP2;ratioP2
74981;SDS011;63532;50.766;18.944;2022-10-31T10:36:35;18.27;;;6.15;;
74981;SDS011;63532;50.766;18.944;2022-10-31T10:39:48;15.07;;;6.25;;
74981;SDS011;63532;50.766;18.944;2022-10-31T10:43:19;20.63;;;6.55;;
74981;SDS011;63532;50.766;18.944;2022-10-31T10:46:30;27.73;;;7.15;;
74981;SDS011;63532;50.766;18.944;2022-10-31T10:50:02;21.20;;;6.55;;
74981;SDS011;63532;50.766;18.944;2022-10-31T10:53:24;30.33;;;6.53;;
74981;SDS011;63532;50.766;18.944;2022-10-31T10:57:04;17.23;;;6.70;;
74981;SDS011;63532;50.766;18.944;2022-10-31T11:00:34;24.00;;;6.45;;
74981;SDS011;63532;50.766;18.944;2022-10-31T11:03:42;28.38;;;7.25;;
74981;SDS011;63532;50.766;18.944;2022-10-31T11:06:56;39.75;;;9.35;;
74981;SDS011;63532;50.766;18.944;2022-10-31T11:10:06;106.43;;;15.57;;
74981;SDS011;63532;50.766;18.944;2022-10-31T11:13:21;170.68;;;20.88;;
74981;SDS011;63532;50.766;18.944;2022-10-31T11:16:29;160.95;;;20.38;;
74981;SDS011;63532;50.766;18.944;2022-10-31T11:19:43;110.70;;;17.88;;
74981;SDS011;63532;50.766;18.944;2022-10-31T11:22:47;135.40;;;21.00;;
74981;SDS011;63532;50.766;18.944;2022-10-31T11:25:55;130.07;;;19.45;;
74981;SDS011;63532;50.766;18.944;2022-10-31T11:29:01;117.72;;;20.15;;
74981;SDS011;63532;50.766;18.944;2022-10-31T11:32:08;93.43;;;18.45;;
74981;SDS011;63532;50.766;18.944;2022-10-31T11:35:24;115.45;;;16.48;;
74981;SDS011;63532;50.766;18.944;2022-10-31T11:38:31;105.05;;;17.33;;
74981;SDS011;63532;50.766;18.944;2022-10-31T11:41:44;95.35;;;17.98;;
74981;SDS011;63532;50.766;18.944;2022-10-31T11:44:50;84.25;;;16.77;;
74981;SDS011;63532;50.766;18.944;2022-10-31T11:47:57;77.43;;;16.88;;
74981;SDS011;63532;50.766;18.944;2022-10-31T11:51:06;76.22;;;16.17;;
74981;SDS011;63532;50.766;18.944;2022-10-31T11:54:18;77.20;;;16.08;;
74981;SDS011;63532;50.766;18.944;2022-10-31T11:57:29;69.70;;;15.98;;
74981;SDS011;63532;50.766;18.944;2022-10-31T12:00:37;83.93;;;17.17;;
74981;SDS011;63532;50.766;18.944;2022-10-31T12:03:48;88.90;;;15.40;;
74981;SDS011;63532;50.766;18.944;2022-10-31T12:07:08;74.93;;;15.45;;
74981;SDS011;63532;50.766;18.944;2022-10-31T12:10:13;65.65;;;14.70;;
74981;SDS011;63532;50.766;18.944;2022-10-31T12:13:26;63.13;;;13.65;;
74981;SDS011;63532;50.766;18.944;2022-10-31T12:16:41;57.35;;;12.95;;
74981;SDS011;63532;50.766;18.944;2022-10-31T12:20:00;62.33;;;16.00;;
74981;SDS011;63532;50.766;18.944;2022-10-31T12:23:23;62.25;;;13.98;;
74981;SDS011;63532;50.766;18.944;2022-10-31T12:26:44;63.40;;;14.70;;
74981;SDS011;63532;50.766;18.944;2022-10-31T12:30:20;74.85;;;14.75;;
74981;SDS011;63532;50.766;18.944;2022-10-31T12:33:34;78.45;;;14.68;;
74981;SDS011;63532;50.766;18.944;2022-10-31T12:36:57;57.38;;;14.18;;
74981;SDS011;63532;50.766;18.944;2022-10-31T12:44:14;52.90;;;14.30;;
74981;SDS011;63532;50.766;18.944;2022-10-31T12:47:51;68.18;;;15.40;;
74981;SDS011;63532;50.766;18.944;2022-10-31T12:51:15;55.42;;;14.25;;
74981;SDS011;63532;50.766;18.944;2022-10-31T12:54:38;60.03;;;13.68;;
74981;SDS011;63532;50.766;18.944;2022-10-31T12:58:01;56.33;;;13.57;;
74981;SDS011;63532;50.766;18.944;2022-10-31T13:01:14;49.88;;;13.18;;
74981;SDS011;63532;50.766;18.944;2022-10-31T13:04:33;70.10;;;13.55;;
74981;SDS011;63532;50.766;18.944;2022-10-31T13:10:58;47.30;;;13.15;;
74981;SDS011;63532;50.766;18.944;2022-10-31T13:14:16;45.15;;;12.98;;
74981;SDS011;63532;50.766;18.944;2022-10-31T13:17:30;50.15;;;13.20;;
74981;SDS011;63532;50.766;18.944;2022-10-31T13:20:44;49.83;;;12.30;;
74981;SDS011;63532;50.766;18.944;2022-10-31T13:23:57;46.20;;;12.95;;
74981;SDS011;63532;50.766;18.944;2022-10-31T13:27:10;45.03;;;11.45;;
74981;SDS011;63532;50.766;18.944;2022-10-31T13:30:24;55.92;;;12.02;;
74981;SDS011;63532;50.766;18.944;2022-10-31T13:33:35;42.30;;;11.77;;
74981;SDS011;63532;50.766;18.944;2022-10-31T13:36:51;41.80;;;11.30;;
74981;SDS011;63532;50.766;18.944;2022-10-31T13:40:12;55.58;;;12.05;;
74981;SDS011;63532;50.766;18.944;2022-10-31T13:43:36;37.03;;;11.00;;
74981;SDS011;63532;50.766;18.944;2022-10-31T13:47:03;41.38;;;11.38;;
74981;SDS011;63532;50.766;18.944;2022-10-31T13:50:26;38.35;;;10.13;;
74981;SDS011;63532;50.766;18.944;2022-10-31T13:53:41;28.13;;;9.50;;
74981;SDS011;63532;50.766;18.944;2022-10-31T13:56:59;38.08;;;10.27;;
74981;SDS011;63532;50.766;18.944;2022-10-31T14:00:05;39.13;;;11.23;;
74981;SDS011;63532;50.766;18.944;2022-10-31T14:03:27;32.50;;;10.00;;
74981;SDS011;63532;50.766;18.944;2022-10-31T14:06:54;36.83;;;10.40;;
74981;SDS011;63532;50.766;18.944;2022-10-31T14:10:19;36.47;;;10.32;;
74981;SDS011;63532;50.766;18.944;2022-10-31T14:13:31;34.60;;;10.13;;
74981;SDS011;63532;50.766;18.944;2022-10-31T14:16:45;35.53;;;9.48;;
74981;SDS011;63532;50.766;18.944;2022-10-31T14:20:03;32.10;;;9.32;;
74981;SDS011;63532;50.766;18.944;2022-10-31T14:23:44;33.42;;;9.35;;
74981;SDS011;63532;50.766;18.944;2022-10-31T14:26:56;30.92;;;9.27;;
74981;SDS011;63532;50.766;18.944;2022-10-31T14:30:17;32.60;;;9.70;;
74981;SDS011;63532;50.766;18.944;2022-10-31T14:33:25;30.25;;;9.43;;
74981;SDS011;63532;50.766;18.944;2022-10-31T14:36:37;34.17;;;9.43;;
74981;SDS011;63532;50.766;18.944;2022-10-31T14:39:55;45.72;;;10.05;;
74981;SDS011;63532;50.766;18.944;2022-10-31T14:43:25;34.60;;;8.57;;
74981;SDS011;63532;50.766;18.944;2022-10-31T14:46:56;30.50;;;9.15;;
74981;SDS011;63532;50.766;18.944;2022-10-31T14:50:20;29.45;;;8.45;;
74981;SDS011;63532;50.766;18.944;2022-10-31T14:53:45;27.77;;;8.27;;
74981;SDS011;63532;50.766;18.944;2022-10-31T14:56:54;33.63;;;8.50;;
74981;SDS011;63532;50.766;18.944;2022-10-31T15:00:12;28.23;;;8.48;;
74981;SDS011;63532;50.766;18.944;2022-10-31T15:03:24;26.35;;;7.97;;
74981;SDS011;63532;50.766;18.944;2022-10-31T15:06:37;29.85;;;7.95;;
74981;SDS011;63532;50.766;18.944;2022-10-31T15:09:54;37.40;;;8.63;;
74981;SDS011;63532;50.766;18.944;2022-10-31T15:16:26;32.88;;;8.50;;
74981;SDS011;63532;50.766;18.944;2022-10-31T15:19:37;25.00;;;8.93;;
74981;SDS011;63532;50.766;18.944;2022-10-31T15:22:42;36.28;;;9.60;;
74981;SDS011;63532;50.766;18.944;2022-10-31T15:25:48;83.88;;;11.30;;
74981;SDS011;63532;50.766;18.944;2022-10-31T15:28:59;55.88;;;10.32;;
74981;SDS011;63532;50.766;18.944;2022-10-31T15:32:16;57.45;;;9.88;;
74981;SDS011;63532;50.766;18.944;2022-10-31T15:35:25;44.75;;;9.30;;
74981;SDS011;63532;50.766;18.944;2022-10-31T15:38:32;45.00;;;9.98;;
74981;SDS011;63532;50.766;18.944;2022-10-31T15:41:38;45.60;;;9.65;;
74981;SDS011;63532;50.766;18.944;2022-10-31T15:44:57;38.30;;;9.30;;
74981;SDS011;63532;50.766;18.944;2022-10-31T15:48:13;38.23;;;9.60;;
74981;SDS011;63532;50.766;18.944;2022-10-31T15:51:25;43.53;;;9.88;;
74981;SDS011;63532;50.766;18.944;2022-10-31T15:54:36;40.65;;;9.70;;
74981;SDS011;63532;50.766;18.944;2022-10-31T15:57:51;36.95;;;9.38;;
74981;SDS011;63532;50.766;18.944;2022-10-31T16:01:00;37.17;;;8.25;;
74981;SDS011;63532;50.766;18.944;2022-10-31T16:04:22;23.58;;;8.32;;
74981;SDS011;63532;50.766;18.944;2022-10-31T16:07:27;30.25;;;8.55;;
74981;SDS011;63532;50.766;18.944;2022-10-31T16:10:33;36.47;;;8.38;;
74981;SDS011;63532;50.766;18.944;2022-10-31T16:13:40;35.35;;;7.95;;
74981;SDS011;63532;50.766;18.944;2022-10-31T16:16:57;36.28;;;8.73;;
74981;SDS011;63532;50.766;18.944;2022-10-31T16:20:06;32.08;;;7.63;;
74981;SDS011;63532;50.766;18.944;2022-10-31T16:23:21;24.73;;;7.88;;
74981;SDS011;63532;50.766;18.944;2022-10-31T16:26:29;34.85;;;7.53;;
74981;SDS011;63532;50.766;18.944;2022-10-31T16:29:37;21.63;;;7.90;;
74981;SDS011;63532;50.766;18.944;2022-10-31T16:32:53;28.95;;;7.53;;
74981;SDS011;63532;50.766;18.944;2022-10-31T16:39:41;28.98;;;7.50;;
